Terminal Aerodrome Forecast
Issued by NWS

Home | Current Version | Previous Version | Text Only | Print | Product List | Glossary On
Versions: 1 2 3 4 5 6 7 8 9 10 11 12 13 14 15 16 17 18 19 20 21 22 23 24 25 26 27 28 29 30 31
000
FTUS41 KBOX 210538
TAFFMH
TAF
KFMH 210538Z 2106/2206 11003KT P6SM FEW035 BKN040
     FM211300 14007KT P6SM OVC040
     FM211500 16009KT 5SM -SHRA OVC015
     FM211900 16008KT P6SM OVC015
     FM212100 14007KT P6SM OVC025
     FM220000 11005KT P6SM BKN040
     FM220400 04004KT 6SM BR BKN035=

USA.gov is the U.S. government's official web portal to all federal, state and local government web resources and services.